Time;durP1;ratioP1;P1;durP2;ratioP2;P2;SDS_P1;SDS_P2;PMS_P1;PMS_P2;Temp;Humidity;BMP_temperature;BMP_pressure;BME280_temperature;BME280_humidity;BME280_pressure;Samples;Min_cycle;Max_cycle;Signal;HPM_P1;HPM_P2
2024/04/14 00:00:37;;;;;;;;;;;;;;;20.72;47.50;96274.09;11243652;26;3072;-73
2024/04/14 00:05:37;;;;;;;;;;;;;;;20.72;47.51;96263.56;11244707;26;2887;-72
2024/04/14 00:10:37;;;;;;;;;;;;;;;20.73;47.76;96264.38;11213348;26;2826;-72
2024/04/14 00:15:38;;;;;;;;;;;;;;;20.72;47.37;96258.28;11230010;26;2909;-72
2024/04/14 00:20:38;;;;;;;;;;;;;;;20.72;47.72;96253.03;11232418;26;3089;-71
2024/04/14 00:25:39;;;;;;;;;;;;;;;20.72;47.54;96253.03;11227087;26;3204;-72
2024/04/14 00:30:41;;;;;;;;;;;;;;;20.72;47.57;96245.13;11212825;26;3075;-71
2024/04/14 00:35:41;;;;;;;;;;;;;;;20.72;47.12;96236.44;11235955;26;2935;-72
2024/04/14 00:40:41;;;;;;;;;;;;;;;20.72;47.48;96233.78;11237845;26;2834;-71
2024/04/14 00:45:41;;;;;;;;;;;;;;;20.71;47.38;96230.34;11229400;26;3007;-72
2024/04/14 00:50:42;;;;;;;;;;;;;;;20.72;47.11;96226.69;11233337;26;2879;-72
2024/04/14 00:55:42;;;;;;;;;;;;;;;20.71;47.33;96238.25;11233095;26;2438;-71
2024/04/14 01:00:42;;;;;;;;;;;;;;;20.72;47.12;96231.16;11233219;26;3104;-72
2024/04/14 01:05:43;;;;;;;;;;;;;;;20.72;47.07;96225.88;11236933;26;3114;-72
2024/04/14 01:10:43;;;;;;;;;;;;;;;20.71;46.86;96224.31;11241538;26;2966;-73
2024/04/14 01:15:43;;;;;;;;;;;;;;;20.70;46.97;96218.25;11242507;26;2994;-72
2024/04/14 01:20:43;;;;;;;;;;;;;;;20.72;46.84;96220.63;11240648;26;2902;-71
2024/04/14 01:25:44;;;;;;;;;;;;;;;20.72;46.85;96231.16;11232154;26;3133;-71
2024/04/14 01:30:44;;;;;;;;;;;;;;;20.71;46.90;96229.59;11239091;26;3433;-72
2024/04/14 01:35:44;;;;;;;;;;;;;;;20.71;47.04;96219.81;11259588;26;3086;-71
2024/04/14 01:40:45;;;;;;;;;;;;;;;20.71;47.06;96219.81;11227239;26;2917;-73
2024/04/14 01:45:45;;;;;;;;;;;;;;;20.70;47.01;96218.25;11227799;26;3037;-72
2024/04/14 01:50:46;;;;;;;;;;;;;;;20.70;46.95;96209.56;11207187;26;3186;-72
2024/04/14 01:55:47;;;;;;;;;;;;;;;20.70;46.72;96215.63;11243186;26;3096;-72
2024/04/14 02:00:47;;;;;;;;;;;;;;;20.71;46.77;96219.06;11233366;26;2965;-71
2024/04/14 02:05:57;;;;;;;;;;;;;;;20.71;46.71;96219.06;11235728;26;2597;-72
2024/04/14 02:10:59;;;;;;;;;;;;;;;20.70;46.56;96223.53;11232129;26;2653;-72
2024/04/14 02:16:00;;;;;;;;;;;;;;;20.71;46.83;96219.06;11206388;26;3125;-72
2024/04/14 02:21:00;;;;;;;;;;;;;;;20.69;46.50;96216.66;11236238;26;3156;-70
2024/04/14 02:26:01;;;;;;;;;;;;;;;20.70;46.59;96220.88;11239070;26;2482;-72
2024/04/14 02:31:01;;;;;;;;;;;;;;;20.71;46.33;96219.06;11238244;26;3197;-71
2024/04/14 02:36:01;;;;;;;;;;;;;;;20.70;46.63;96214.81;11196526;26;3176;-71
2024/04/14 02:41:02;;;;;;;;;;;;;;;20.69;46.60;96216.66;11230841;26;3034;-70
2024/04/14 02:46:05;;;;;;;;;;;;;;;20.71;46.43;96209.28;11245731;26;3062;-71
2024/04/14 02:51:05;;;;;;;;;;;;;;;20.70;46.27;96204.28;11237375;26;3150;-72
2024/04/14 02:56:05;;;;;;;;;;;;;;;20.69;46.50;96202.72;11234903;26;3695;-72
2024/04/14 03:01:06;;;;;;;;;;;;;;;20.70;46.38;96201.66;11230655;26;3084;-71
2024/04/14 03:06:06;;;;;;;;;;;;;;;20.70;46.38;96199.00;11242411;26;3029;-71
2024/04/14 03:11:07;;;;;;;;;;;;;;;20.70;46.12;96202.44;11236913;26;3127;-71
2024/04/14 03:16:07;;;;;;;;;;;;;;;20.69;46.27;96200.84;11232447;26;2841;-71
2024/04/14 03:21:08;;;;;;;;;;;;;;;20.69;46.20;96203.47;11250106;26;2932;-72
2024/04/14 03:26:08;;;;;;;;;;;;;;;20.69;45.93;96200.09;11230946;26;3102;-71
2024/04/14 03:31:08;;;;;;;;;;;;;;;20.69;46.15;96205.34;11247879;26;2480;-71
2024/04/14 03:36:09;;;;;;;;;;;;;;;20.69;46.07;96208.75;11239885;26;5024;-71
2024/04/14 03:41:09;;;;;;;;;;;;;;;20.68;46.31;96199.28;11240478;26;3221;-71
2024/04/14 03:46:10;;;;;;;;;;;;;;;20.68;45.93;96201.91;11230990;26;3125;-71
2024/04/14 03:51:10;;;;;;;;;;;;;;;20.68;45.83;96204.56;11233672;26;3148;-71
2024/04/14 03:56:10;;;;;;;;;;;;;;;20.67;46.16;96197.69;11222905;26;3061;-71
2024/04/14 04:01:11;;;;;;;;;;;;;;;20.67;45.96;96197.69;11243209;26;3017;-71
2024/04/14 04:06:11;;;;;;;;;;;;;;;20.68;45.59;96199.28;11236070;26;3185;-71
2024/04/14 04:11:11;;;;;;;;;;;;;;;20.67;45.77;96202.97;11228106;26;3113;-71
2024/04/14 04:16:11;;;;;;;;;;;;;;;20.67;45.69;96213.50;11241430;26;3169;-71
2024/04/14 04:21:12;;;;;;;;;;;;;;;20.66;45.81;96211.13;11240743;26;2995;-72
2024/04/14 04:26:12;;;;;;;;;;;;;;;20.66;45.82;96211.13;11233576;26;2526;-71
2024/04/14 04:31:13;;;;;;;;;;;;;;;20.66;45.49;96209.28;11233844;26;3445;-71
2024/04/14 04:36:13;;;;;;;;;;;;;;;20.66;45.73;96214.56;11229913;26;2879;-71
2024/04/14 04:41:13;;;;;;;;;;;;;;;20.64;45.59;96206.13;11215678;26;3038;-73
2024/04/14 04:46:14;;;;;;;;;;;;;;;20.65;45.55;96210.34;11239801;26;2971;-71
2024/04/14 04:51:14;;;;;;;;;;;;;;;20.65;45.67;96212.97;11236967;26;3003;-71
2024/04/14 04:56:14;;;;;;;;;;;;;;;20.66;45.60;96216.41;11239127;26;2486;-72
2024/04/14 05:01:15;;;;;;;;;;;;;;;20.65;45.33;96209.56;11228753;26;3068;-72
2024/04/14 05:06:15;;;;;;;;;;;;;;;20.65;45.31;96209.56;11241422;26;2815;-71
2024/04/14 05:11:15;;;;;;;;;;;;;;;20.64;45.31;96214.03;11227424;26;3133;-71
2024/04/14 05:16:15;;;;;;;;;;;;;;;20.64;45.54;96213.25;11229256;26;3015;-72
2024/04/14 05:21:16;;;;;;;;;;;;;;;20.65;45.65;96215.59;11225837;26;3211;-73
2024/04/14 05:26:16;;;;;;;;;;;;;;;20.65;45.19;96220.88;11230879;26;3115;-71
2024/04/14 05:31:17;;;;;;;;;;;;;;;20.65;45.28;96218.22;11227141;26;3429;-70
2024/04/14 05:36:17;;;;;;;;;;;;;;;20.66;45.44;96216.41;11226387;26;3260;-70
2024/04/14 05:41:18;;;;;;;;;;;;;;;20.66;45.38;96227.72;11198754;26;3041;-68
2024/04/14 05:46:18;;;;;;;;;;;;;;;20.66;45.37;96233.00;11233381;26;3144;-68
2024/04/14 05:51:19;;;;;;;;;;;;;;;20.66;45.49;96232.19;11233122;26;3016;-72
2024/04/14 05:56:19;;;;;;;;;;;;;;;20.67;45.47;96239.84;11226458;26;2957;-73
2024/04/14 06:01:20;;;;;;;;;;;;;;;20.67;45.49;96241.69;11239937;26;3032;-72
2024/04/14 06:06:20;;;;;;;;;;;;;;;20.68;45.97;96240.63;11230892;26;3019;-71
2024/04/14 06:11:20;;;;;;;;;;;;;;;20.67;45.63;96229.31;11236490;26;3199;-70
2024/04/14 06:16:21;;;;;;;;;;;;;;;20.67;45.63;96237.19;11234222;26;3133;-71
2024/04/14 06:21:21;;;;;;;;;;;;;;;20.67;45.86;96239.84;11240128;26;3197;-69
2024/04/14 06:26:21;;;;;;;;;;;;;;;20.68;45.40;96228.25;11238146;26;3038;-70
2024/04/14 06:31:22;;;;;;;;;;;;;;;20.68;45.54;96227.47;11204577;26;2875;-69
2024/04/14 06:36:22;;;;;;;;;;;;;;;20.68;45.70;96235.38;11244116;26;2969;-71
2024/04/14 06:41:23;;;;;;;;;;;;;;;20.68;45.84;96236.16;11237429;26;2815;-72
2024/04/14 06:46:24;;;;;;;;;;;;;;;20.69;45.84;96227.19;11235366;26;2865;-72
2024/04/14 06:51:24;;;;;;;;;;;;;;;20.69;45.76;96226.44;11240681;26;2967;-71
2024/04/14 06:56:24;;;;;;;;;;;;;;;20.70;45.74;96222.72;11227425;26;3139;-71
2024/04/14 07:01:25;;;;;;;;;;;;;;;20.70;45.98;96223.53;11239637;26;3015;-71
2024/04/14 07:06:26;;;;;;;;;;;;;;;20.71;46.33;96230.34;11215559;26;3113;-72
2024/04/14 07:11:26;;;;;;;;;;;;;;;20.72;46.78;96226.69;11236307;26;2826;-75
2024/04/14 07:16:26;;;;;;;;;;;;;;;20.74;46.88;96231.69;11242571;26;2910;-75
2024/04/14 07:21:26;;;;;;;;;;;;;;;20.74;46.57;96226.41;11247150;26;3123;-71
2024/04/14 07:26:27;;;;;;;;;;;;;;;20.75;46.45;96220.88;11232892;26;3089;-72
2024/04/14 07:31:27;;;;;;;;;;;;;;;20.75;46.62;96225.38;11209479;26;3218;-73
2024/04/14 07:36:28;;;;;;;;;;;;;;;20.75;46.70;96222.75;11213542;26;3080;-72
2024/04/14 07:41:29;;;;;;;;;;;;;;;20.76;46.65;96222.47;11233893;26;2994;-73
2024/04/14 07:46:30;;;;;;;;;;;;;;;20.76;46.42;96222.47;11233239;26;2782;-72
2024/04/14 07:51:30;;;;;;;;;;;;;;;20.76;46.75;96232.22;11240013;26;3468;-73
2024/04/14 07:56:30;;;;;;;;;;;;;;;20.75;46.82;96225.38;11232920;26;3223;-72
2024/04/14 08:01:31;;;;;;;;;;;;;;;20.74;46.32;96219.31;11233618;26;3207;-72
2024/04/14 08:06:31;;;;;;;;;;;;;;;20.76;46.61;96222.47;11238497;26;2936;-73
2024/04/14 08:11:32;;;;;;;;;;;;;;;20.76;46.62;96224.31;11231145;26;3011;-72
2024/04/14 08:16:32;;;;;;;;;;;;;;;20.76;46.19;96227.75;11235864;26;3085;-72
2024/04/14 08:21:32;;;;;;;;;;;;;;;20.77;46.25;96223.25;11202954;26;2970;-73
2024/04/14 08:26:32;;;;;;;;;;;;;;;20.76;46.19;96222.47;11206220;26;2978;-72
2024/04/14 08:31:33;;;;;;;;;;;;;;;20.76;46.42;96222.47;11234371;26;3105;-72
2024/04/14 08:36:33;;;;;;;;;;;;;;;20.77;46.47;96226.66;11235623;26;3090;-73
2024/04/14 08:41:34;;;;;;;;;;;;;;;20.77;46.78;96218.75;11205603;26;3159;-73
2024/04/14 08:46:34;;;;;;;;;;;;;;;20.77;46.45;96221.41;11234194;26;3191;-72
2024/04/14 08:51:35;;;;;;;;;;;;;;;20.76;46.35;96222.47;11239344;26;2972;-73
2024/04/14 08:56:35;;;;;;;;;;;;;;;20.79;46.44;96226.44;11238467;26;3101;-73
2024/04/14 09:01:35;;;;;;;;;;;;;;;20.79;46.67;96226.44;11234274;26;3104;-73
2024/04/14 09:06:36;;;;;;;;;;;;;;;20.78;46.51;96220.38;11203265;26;3211;-72
2024/04/14 09:11:36;;;;;;;;;;;;;;;20.79;46.13;96210.63;11234068;26;3127;-73
2024/04/14 09:16:36;;;;;;;;;;;;;;;20.80;46.58;96215.63;11229469;26;3149;-73
2024/04/14 09:21:37;;;;;;;;;;;;;;;20.81;46.58;96209.28;11204082;26;3251;-74
2024/04/14 09:26:37;;;;;;;;;;;;;;;20.80;45.97;96210.34;11202784;26;3245;-73
2024/04/14 09:31:38;;;;;;;;;;;;;;;20.82;45.99;96216.16;11224876;26;3117;-72
2024/04/14 09:36:38;;;;;;;;;;;;;;;20.83;46.20;96212.47;11232771;26;3105;-72
2024/04/14 09:41:38;;;;;;;;;;;;;;;20.83;45.99;96199.28;11202104;26;2846;-72
2024/04/14 09:46:39;;;;;;;;;;;;;;;20.84;45.87;96190.31;11226917;26;2905;-72
2024/04/14 09:51:39;;;;;;;;;;;;;;;20.85;46.15;96194.56;11246716;26;3104;-72
2024/04/14 09:56:39;;;;;;;;;;;;;;;20.86;46.18;96196.13;11208961;26;3123;-72
2024/04/14 10:01:40;;;;;;;;;;;;;;;20.87;46.05;96186.38;11224282;26;3108;-71
2024/04/14 10:06:40;;;;;;;;;;;;;;;20.87;45.93;96184.53;11232735;26;3098;-72
2024/04/14 10:11:41;;;;;;;;;;;;;;;20.88;46.10;96170.28;11227473;26;3229;-72
2024/04/14 10:16:54;;;;;;;;;;;;;;;20.89;46.23;96171.88;11237061;26;3259;-71
2024/04/14 10:22:01;;;;;;;;;;;;;;;20.90;45.93;96172.66;11204042;26;3377;-72
2024/04/14 10:27:04;;;;;;;;;;;;;;;20.91;45.94;96164.50;11226126;26;3194;-71
2024/04/14 10:32:05;;;;;;;;;;;;;;;20.92;46.20;96163.44;11233696;26;3061;-72
2024/04/14 10:37:05;;;;;;;;;;;;;;;20.92;45.77;96154.72;11226146;26;2934;-71
2024/04/14 10:42:05;;;;;;;;;;;;;;;20.93;45.61;96143.94;11226614;26;3220;-72
2024/04/14 10:47:06;;;;;;;;;;;;;;;20.93;45.70;96145.78;11225964;26;2990;-72
2024/04/14 10:52:06;;;;;;;;;;;;;;;20.93;45.81;96138.69;11236618;26;2974;-71
2024/04/14 10:57:07;;;;;;;;;;;;;;;20.95;46.05;96138.41;11229533;26;3128;-71
2024/04/14 11:02:07;;;;;;;;;;;;;;;20.94;45.82;96129.69;11240947;26;3109;-71
2024/04/14 11:07:10;;;;;;;;;;;;;;;20.95;45.81;96128.66;11229578;26;3444;-71
2024/04/14 11:12:10;;;;;;;;;;;;;;;20.95;45.97;96120.75;11239754;26;2948;-71
2024/04/14 11:17:11;;;;;;;;;;;;;;;20.96;45.55;96114.41;11240803;26;3089;-71
2024/04/14 11:22:17;;;;;;;;;;;;;;;20.97;45.45;96113.38;11240641;26;3316;-71
2024/04/14 11:27:17;;;;;;;;;;;;;;;20.97;46.00;96102.81;11233585;26;3148;-71
2024/04/14 11:37:49;;;;;;;;;;;;;;;20.99;45.85;96100.72;11236654;26;2938;-72
2024/04/14 11:42:50;;;;;;;;;;;;;;;21.00;45.67;96081.19;11209322;26;2970;-72
2024/04/14 11:47:50;;;;;;;;;;;;;;;21.00;45.63;96078.56;11205820;26;3470;-72
2024/04/14 11:52:50;;;;;;;;;;;;;;;21.01;45.79;96066.19;11245220;26;3274;-72
2024/04/14 11:57:50;;;;;;;;;;;;;;;21.01;45.85;96064.34;11210045;26;2825;-71
2024/04/14 12:02:51;;;;;;;;;;;;;;;21.02;45.71;96057.22;11228938;26;3088;-71
2024/04/14 12:07:51;;;;;;;;;;;;;;;21.02;45.60;96044.84;11226817;26;2823;-71
2024/04/14 12:12:51;;;;;;;;;;;;;;;21.02;45.44;96041.41;11240908;26;3101;-72
2024/04/14 12:17:51;;;;;;;;;;;;;;;21.04;45.59;96044.59;11232467;26;3195;-72
2024/04/14 12:22:52;;;;;;;;;;;;;;;21.04;45.39;96028.78;11241658;26;3073;-72
2024/04/14 12:27:52;;;;;;;;;;;;;;;21.04;45.50;96029.56;11240251;26;2803;-71
2024/04/14 12:32:54;;;;;;;;;;;;;;;21.05;45.39;96020.59;11207588;26;3319;-71
2024/04/14 12:37:54;;;;;;;;;;;;;;;21.06;45.23;96021.41;11224444;26;3210;-72
2024/04/14 12:42:54;;;;;;;;;;;;;;;21.06;45.66;96019.53;11228782;26;3255;-73
2024/04/14 12:47:55;;;;;;;;;;;;;;;21.08;45.22;96005.31;11236189;26;3192;-71
2024/04/14 12:52:55;;;;;;;;;;;;;;;21.08;45.37;96007.94;11213529;26;3105;-72
2024/04/14 12:57:55;;;;;;;;;;;;;;;21.08;45.30;95994.75;11236977;26;2850;-72
2024/04/14 13:02:56;;;;;;;;;;;;;;;21.10;45.29;95984.72;11234039;26;3212;-71
2024/04/14 13:07:56;;;;;;;;;;;;;;;21.11;45.63;95981.03;11202406;26;3148;-71
2024/04/14 13:12:56;;;;;;;;;;;;;;;21.11;45.57;95971.28;11229974;26;3086;-71
2024/04/14 13:17:56;;;;;;;;;;;;;;;21.13;45.67;95963.09;11224205;26;3057;-68
2024/04/14 13:22:57;;;;;;;;;;;;;;;21.15;45.92;95953.84;11234998;26;3406;-69
2024/04/14 13:27:57;;;;;;;;;;;;;;;21.17;46.10;95954.38;11225833;26;3145;-69
2024/04/14 13:32:57;;;;;;;;;;;;;;;21.19;46.66;95944.34;11233066;26;2910;-68
2024/04/14 13:37:57;;;;;;;;;;;;;;;21.19;46.71;95930.38;11231262;26;3168;-69
2024/04/14 13:42:58;;;;;;;;;;;;;;;21.22;47.15;95941.19;11222096;26;3003;-69
2024/04/14 13:47:58;;;;;;;;;;;;;;;21.24;46.72;95925.06;11231065;26;2937;-68
2024/04/14 13:52:58;;;;;;;;;;;;;;;21.24;47.14;95917.97;11223493;26;3064;-69
2024/04/14 13:57:59;;;;;;;;;;;;;;;21.24;46.79;95907.41;11223791;26;2946;-69
2024/04/14 14:02:59;;;;;;;;;;;;;;;21.25;46.66;95913.44;11195226;26;3100;-68
2024/04/14 14:08:00;;;;;;;;;;;;;;;21.26;46.91;95904.50;11229162;26;3101;-69
2024/04/14 14:13:01;;;;;;;;;;;;;;;21.29;47.14;95901.34;11198152;26;3420;-70
2024/04/14 14:18:02;;;;;;;;;;;;;;;21.28;46.84;95899.75;11198447;26;3065;-72
2024/04/14 14:23:02;;;;;;;;;;;;;;;21.27;46.92;95879.72;11228712;26;2937;-69
2024/04/14 14:28:02;;;;;;;;;;;;;;;21.29;47.19;95882.88;11258293;26;3085;-71
2024/04/14 14:36:20;;;;;;;;;;;;;;;21.29;47.36;95891.53;11233202;26;3090;-72
2024/04/14 14:38:23;;;;;;;;;;;;;;;21.29;47.28;95888.16;11234457;26;2831;-71
2024/04/14 14:43:23;;;;;;;;;;;;;;;21.31;46.97;95886.78;11232376;26;3101;-70
2024/04/14 14:48:24;;;;;;;;;;;;;;;21.30;46.75;95876.53;11237121;26;2904;-70
2024/04/14 14:53:24;;;;;;;;;;;;;;;21.30;46.54;95873.88;11207708;26;3124;-70
2024/04/14 14:58:24;;;;;;;;;;;;;;;21.28;46.83;95865.47;11227559;26;3075;-69
2024/04/14 15:03:25;;;;;;;;;;;;;;;21.28;46.71;95862.81;11242889;26;3134;-69
2024/04/14 15:08:25;;;;;;;;;;;;;;;21.30;46.45;95861.50;11226618;26;3086;-67
2024/04/14 15:13:26;;;;;;;;;;;;;;;21.29;46.61;95857.28;11206231;26;3124;-67
2024/04/14 15:18:32;;;;;;;;;;;;;;;21.31;46.83;95857.03;11226517;26;3014;-67
2024/04/14 15:23:32;;;;;;;;;;;;;;;21.32;46.78;95851.47;11236188;26;3046;-67
2024/04/14 15:28:32;;;;;;;;;;;;;;;21.34;47.29;95851.19;11245145;26;2991;-67
2024/04/14 15:33:33;;;;;;;;;;;;;;;21.33;47.31;95847.75;11232988;26;3101;-67
2024/04/14 15:38:34;;;;;;;;;;;;;;;21.35;46.91;95850.13;11236230;26;3066;-67
2024/04/14 15:43:34;;;;;;;;;;;;;;;21.34;47.32;95838.00;11233696;26;2920;-69
2024/04/14 15:48:34;;;;;;;;;;;;;;;21.35;47.24;95834.31;11234342;26;3147;-69
2024/04/14 15:53:35;;;;;;;;;;;;;;;21.34;47.17;95828.25;11236846;26;2906;-67
2024/04/14 15:58:35;;;;;;;;;;;;;;;21.36;46.71;95820.03;11230676;26;3023;-67
2024/04/14 16:03:35;;;;;;;;;;;;;;;21.35;47.15;95813.22;11230785;26;3044;-67
2024/04/14 16:08:35;;;;;;;;;;;;;;;21.35;46.86;95815.84;11231172;26;2935;-67
2024/04/14 16:13:36;;;;;;;;;;;;;;;21.36;46.87;95814.78;11226995;26;3117;-67
2024/04/14 16:18:36;;;;;;;;;;;;;;;21.35;46.93;95805.31;11238653;26;3141;-66
2024/04/14 16:23:43;;;;;;;;;;;;;;;21.34;46.82;95807.16;11244170;26;3078;-66
2024/04/14 16:28:43;;;;;;;;;;;;;;;21.34;47.01;95801.09;11229339;26;3117;-67
2024/04/14 16:33:44;;;;;;;;;;;;;;;21.34;47.02;95795.81;11238918;26;2889;-66
2024/04/14 16:38:44;;;;;;;;;;;;;;;21.34;46.88;95787.91;11231493;26;3188;-66
2024/04/14 16:43:44;;;;;;;;;;;;;;;21.33;46.83;95778.44;11230888;26;3151;-67
2024/04/14 16:48:44;;;;;;;;;;;;;;;21.35;46.72;95771.03;11232789;26;2996;-67
2024/04/14 16:53:45;;;;;;;;;;;;;;;21.34;46.64;95772.06;11225409;26;2995;-67
2024/04/14 16:58:45;;;;;;;;;;;;;;;21.34;46.20;95764.16;11227567;26;3108;-66
2024/04/14 17:03:45;;;;;;;;;;;;;;;21.33;46.37;95767.88;11234399;26;3040;-67
2024/04/14 17:08:45;;;;;;;;;;;;;;;21.33;46.33;95765.25;11230970;26;3077;-66
2024/04/14 17:13:46;;;;;;;;;;;;;;;21.33;46.33;95757.34;11224132;26;2872;-66
2024/04/14 17:18:48;;;;;;;;;;;;;;;21.32;45.96;95747.84;11228540;26;3118;-68
2024/04/14 17:23:49;;;;;;;;;;;;;;;21.32;46.17;95739.94;11220791;26;3090;-66
2024/04/14 17:28:49;;;;;;;;;;;;;;;21.32;46.23;95739.94;11230784;26;3128;-66
2024/04/14 17:33:49;;;;;;;;;;;;;;;21.32;45.92;95735.44;11203172;26;3090;-65
2024/04/14 17:38:50;;;;;;;;;;;;;;;21.33;46.04;95738.88;11230347;26;3196;-66
2024/04/14 17:43:51;;;;;;;;;;;;;;;21.32;45.81;95735.44;11228751;26;3226;-67
2024/04/14 17:48:51;;;;;;;;;;;;;;;21.34;46.03;95727.25;11234382;26;3077;-67
2024/04/14 17:53:52;;;;;;;;;;;;;;;21.35;46.23;95726.97;11226891;26;2978;-66
2024/04/14 17:58:52;;;;;;;;;;;;;;;21.34;45.94;95722.78;11226307;26;2999;-66
2024/04/14 18:03:53;;;;;;;;;;;;;;;21.33;45.85;95718.56;11226397;26;2949;-66
2024/04/14 18:08:53;;;;;;;;;;;;;;;21.34;46.13;95724.63;11232073;26;3101;-66
2024/04/14 18:13:53;;;;;;;;;;;;;;;21.34;46.13;95732.53;11229097;26;2823;-66
2024/04/14 18:18:53;;;;;;;;;;;;;;;21.33;45.78;95738.88;11232195;26;3105;-66
2024/04/14 18:23:55;;;;;;;;;;;;;;;21.32;45.80;95740.72;11234484;26;2991;-66
2024/04/14 18:28:55;;;;;;;;;;;;;;;21.32;45.79;95745.19;11226886;26;3234;-66
2024/04/14 18:33:55;;;;;;;;;;;;;;;21.33;46.02;95752.06;11233850;26;3279;-66
2024/04/14 18:38:56;;;;;;;;;;;;;;;21.33;45.70;95746.78;11228735;26;3023;-66
2024/04/14 18:43:56;;;;;;;;;;;;;;;21.34;46.02;95753.63;11227215;26;3018;-67
2024/04/14 18:48:56;;;;;;;;;;;;;;;21.35;46.20;95749.94;11223656;26;3227;-67
2024/04/14 18:53:56;;;;;;;;;;;;;;;21.36;46.28;95751.50;11165945;26;3156;-70
2024/04/14 18:58:57;;;;;;;;;;;;;;;21.34;46.16;95751.78;11241339;26;2978;-72
2024/04/14 19:03:57;;;;;;;;;;;;;;;21.35;45.70;95739.38;11228620;26;3024;-67
2024/04/14 19:08:57;;;;;;;;;;;;;;;21.35;46.30;95747.28;11227253;26;3163;-67
2024/04/14 19:13:57;;;;;;;;;;;;;;;21.35;45.83;95745.44;11226234;26;3063;-74
2024/04/14 19:18:58;;;;;;;;;;;;;;;21.34;45.99;95743.88;11232859;26;3134;-73
2024/04/14 19:23:58;;;;;;;;;;;;;;;21.34;46.30;95749.13;11230791;26;2933;-68
2024/04/14 19:29:00;;;;;;;;;;;;;;;21.35;46.05;95752.56;11236139;26;3050;-65
2024/04/14 19:34:02;;;;;;;;;;;;;;;21.35;46.17;95739.38;11234622;26;3193;-66
2024/04/14 19:39:03;;;;;;;;;;;;;;;21.36;46.21;95735.66;11231108;26;3097;-66
2024/04/14 19:44:03;;;;;;;;;;;;;;;21.36;46.50;95727.75;11227041;26;3232;-65
2024/04/14 19:49:03;;;;;;;;;;;;;;;21.35;46.52;95713.03;11225646;26;3203;-70
2024/04/14 19:54:04;;;;;;;;;;;;;;;21.36;46.46;95714.56;11235841;26;3297;-67
2024/04/14 19:59:04;;;;;;;;;;;;;;;21.35;46.17;95710.38;11231360;26;3206;-73
2024/04/14 20:04:04;;;;;;;;;;;;;;;21.36;46.95;95706.66;11229875;26;3139;-71
2024/04/14 20:09:05;;;;;;;;;;;;;;;21.39;47.33;95698.22;11237048;26;3093;-73
2024/04/14 20:14:05;;;;;;;;;;;;;;;21.41;47.64;95696.09;11230720;26;2909;-73
2024/04/14 20:19:05;;;;;;;;;;;;;;;21.41;47.65;95691.56;11235730;26;3195;-73
2024/04/14 20:24:05;;;;;;;;;;;;;;;21.42;47.88;95685.25;11201535;26;3088;-73
2024/04/14 20:29:08;;;;;;;;;;;;;;;21.42;47.71;95685.25;11237571;26;3153;-74
2024/04/14 20:34:08;;;;;;;;;;;;;;;21.43;47.64;95688.69;11239360;26;3147;-74
2024/04/14 20:39:09;;;;;;;;;;;;;;;21.41;47.58;95674.97;11228743;26;3200;-74
2024/04/14 20:44:09;;;;;;;;;;;;;;;21.41;47.18;95664.44;11231842;26;3187;-74
2024/04/14 20:49:09;;;;;;;;;;;;;;;21.41;47.04;95656.53;11229774;26;2996;-74
2024/04/14 20:54:10;;;;;;;;;;;;;;;21.39;47.06;95656.78;11207962;26;3117;-75
2024/04/14 20:59:10;;;;;;;;;;;;;;;21.40;46.95;95644.41;11233694;26;3759;-73
2024/04/14 21:04:10;;;;;;;;;;;;;;;21.39;47.30;95630.41;11229654;26;3104;-73
2024/04/14 21:09:11;;;;;;;;;;;;;;;21.39;47.39;95627.03;11237967;26;3059;-74
2024/04/14 21:14:11;;;;;;;;;;;;;;;21.39;47.06;95611.97;11243171;26;2944;-74
2024/04/14 21:19:11;;;;;;;;;;;;;;;21.39;46.99;95614.59;11230905;26;3101;-74
2024/04/14 21:24:11;;;;;;;;;;;;;;;21.39;47.15;95598.00;11211596;26;3113;-73
2024/04/14 21:29:12;;;;;;;;;;;;;;;21.39;46.96;95595.38;11229814;26;3086;-73
2024/04/14 21:34:12;;;;;;;;;;;;;;;21.39;47.18;95585.59;11233789;26;2905;-73
2024/04/14 21:39:13;;;;;;;;;;;;;;;21.39;47.30;95582.19;11230236;26;3190;-72
2024/04/14 21:44:13;;;;;;;;;;;;;;;21.38;47.37;95575.34;11230986;26;3101;-73
2024/04/14 21:49:14;;;;;;;;;;;;;;;21.39;46.92;95579.56;11234425;26;3270;-73
2024/04/14 21:54:14;;;;;;;;;;;;;;;21.39;46.88;95571.66;11229140;26;3206;-72
2024/04/14 21:59:14;;;;;;;;;;;;;;;21.38;46.98;95567.41;11225850;26;2862;-72
2024/04/14 22:04:14;;;;;;;;;;;;;;;21.39;47.03;95553.94;11228302;26;2862;-73
2024/04/14 22:09:15;;;;;;;;;;;;;;;21.37;46.76;95548.19;11238190;26;3066;-72
2024/04/14 22:14:17;;;;;;;;;;;;;;;21.39;46.85;95540.00;11233413;26;3215;-73
2024/04/14 22:19:18;;;;;;;;;;;;;;;21.38;47.16;95533.16;11230950;26;2531;-72
2024/04/14 22:24:18;;;;;;;;;;;;;;;21.38;46.72;95527.88;11234449;26;2931;-72
2024/04/14 22:29:18;;;;;;;;;;;;;;;21.38;46.98;95517.31;11226864;26;2839;-72
2024/04/14 22:34:18;;;;;;;;;;;;;;;21.36;46.51;95517.63;11230405;26;2941;-73
2024/04/14 22:39:19;;;;;;;;;;;;;;;21.37;46.94;95499.94;11237374;26;2823;-72
2024/04/14 22:44:19;;;;;;;;;;;;;;;21.37;46.72;95497.31;11221313;26;3201;-73
2024/04/14 22:49:19;;;;;;;;;;;;;;;21.37;46.50;95497.31;11230207;26;2588;-72
2024/04/14 22:54:19;;;;;;;;;;;;;;;21.37;46.62;95486.78;11236222;26;3185;-73
2024/04/14 22:59:20;;;;;;;;;;;;;;;21.37;46.50;95484.13;11245028;26;2992;-72
2024/04/14 23:04:20;;;;;;;;;;;;;;;21.36;46.61;95483.34;11230977;26;2850;-72
2024/04/14 23:09:20;;;;;;;;;;;;;;;21.37;46.63;95484.13;11229474;26;3179;-73
2024/04/14 23:14:21;;;;;;;;;;;;;;;21.37;46.62;95479.63;11266289;26;3216;-72
2024/04/14 23:19:21;;;;;;;;;;;;;;;21.36;46.26;95472.00;11242716;26;2933;-72
2024/04/14 23:24:21;;;;;;;;;;;;;;;21.36;46.15;95475.44;11237190;26;3315;-72
2024/04/14 23:29:21;;;;;;;;;;;;;;;21.36;46.09;95459.59;11241294;26;3274;-73
2024/04/14 23:34:22;;;;;;;;;;;;;;;21.35;46.05;95452.75;11239668;26;2839;-73
2024/04/14 23:39:22;;;;;;;;;;;;;;;21.36;46.05;95435.09;11292901;26;3143;-73
2024/04/14 23:44:23;;;;;;;;;;;;;;;21.36;46.30;95429.81;11281529;26;2983;-73
2024/04/14 23:49:23;;;;;;;;;;;;;;;21.36;46.16;95424.53;11314961;26;3197;-73
2024/04/14 23:54:24;;;;;;;;;;;;;;;21.36;46.20;95424.53;11303342;26;3113;-72
2024/04/14 23:59:26;;;;;;;;;;;;;;;21.37;46.04;95410.31;11401867;25;2951;-74
